Time;durP1;ratioP1;P1;durP2;ratioP2;P2;SDS_P1;SDS_P2;PMS_P1;PMS_P2;Temp;Humidity;BMP_temperature;BMP_pressure;BME280_temperature;BME280_humidity;BME280_pressure;Samples;Min_cycle;Max_cycle;Signal;HPM_P1;HPM_P2
2023/08/19 00:01:03;;;;;;;5.13;2.47;;;23.70;99.90;;;;;;5050768;28;20261;-77
2023/08/19 00:03:30;;;;;;;3.20;2.60;;;23.60;99.90;;;;;;5050914;28;20979;-77
2023/08/19 00:05:58;;;;;;;3.77;2.30;;;23.60;99.90;;;;;;5069560;28;20833;-77
2023/08/19 00:08:24;;;;;;;3.40;2.70;;;23.60;99.90;;;;;;5068985;28;20436;-78
2023/08/19 00:10:49;;;;;;;6.53;1.90;;;23.60;99.90;;;;;;5069182;28;20760;-78
2023/08/19 00:13:18;;;;;;;6.00;3.00;;;23.60;99.90;;;;;;5050885;28;20853;-77
2023/08/19 00:15:43;;;;;;;8.50;2.53;;;23.70;99.90;;;;;;5051198;28;20214;-75
2023/08/19 00:18:09;;;;;;;7.90;3.33;;;23.60;99.90;;;;;;5069460;28;20479;-75
2023/08/19 00:20:35;;;;;;;4.70;2.80;;;23.50;99.90;;;;;;5070131;28;20206;-75
2023/08/19 00:23:00;;;;;;;4.33;2.30;;;23.50;99.90;;;;;;5054653;28;20217;-76
2023/08/19 00:25:26;;;;;;;5.20;2.70;;;23.60;99.90;;;;;;5072474;28;20213;-76
2023/08/19 00:27:53;;;;;;;2.80;2.23;;;23.60;99.90;;;;;;5072954;28;20189;-79
2023/08/19 00:30:19;;;;;;;2.17;1.97;;;23.60;99.90;;;;;;5073141;28;20432;-77
2023/08/19 00:32:47;;;;;;;5.23;2.33;;;23.50;99.90;;;;;;5055132;28;20533;-77
2023/08/19 00:35:13;;;;;;;10.40;2.60;;;23.50;99.90;;;;;;5054793;28;20460;-77
2023/08/19 00:37:39;;;;;;;8.43;2.27;;;23.40;99.90;;;;;;5073187;28;20427;-78
2023/08/19 00:40:05;;;;;;;4.07;2.47;;;23.30;99.90;;;;;;5054722;28;20472;-78
2023/08/19 00:42:31;;;;;;;5.40;2.80;;;23.30;99.90;;;;;;5073098;28;20259;-77
2023/08/19 00:44:57;;;;;;;3.17;2.63;;;23.20;99.90;;;;;;5038054;28;20507;-79
2023/08/19 00:47:24;;;;;;;2.90;2.20;;;23.20;99.90;;;;;;5054580;28;20190;-77
2023/08/19 00:49:50;;;;;;;3.50;2.70;;;23.10;99.90;;;;;;5038241;28;20731;-75
2023/08/19 00:52:16;;;;;;;3.20;2.90;;;23.10;99.90;;;;;;5053746;28;20427;-76
2023/08/19 00:54:42;;;;;;;6.77;2.80;;;23.00;99.90;;;;;;5053884;28;20475;-78
2023/08/19 00:57:08;;;;;;;3.03;2.30;;;23.00;99.90;;;;;;5072570;28;20429;-79
2023/08/19 00:59:34;;;;;;;11.20;3.00;;;23.00;99.90;;;;;;5054244;28;20548;-78
2023/08/19 01:01:59;;;;;;;5.77;2.43;;;23.00;99.90;;;;;;5054314;28;20583;-77
2023/08/19 01:04:25;;;;;;;3.30;2.60;;;23.00;99.90;;;;;;5054055;28;20207;-78
2023/08/19 01:07:05;;;;;;;4.50;2.53;;;22.90;99.90;;;;;;5072284;28;20239;-76
2023/08/19 01:09:52;;;;;;;3.10;2.40;;;22.80;99.90;;;;;;5071957;28;20186;-77
2023/08/19 01:12:34;;;;;;;5.27;2.30;;;22.70;99.90;;;;;;5072000;28;20400;-76
2023/08/19 01:15:07;;;;;;;8.53;2.60;;;22.70;99.90;;;;;;5053760;28;20444;-77
2023/08/19 01:17:35;;;;;;;4.90;2.27;;;22.60;99.90;;;;;;5071726;28;20515;-76
2023/08/19 01:20:00;;;;;;;2.30;2.00;;;22.70;99.90;;;;;;5037251;28;20902;-76
2023/08/19 01:22:49;;;;;;;8.20;2.23;;;22.70;99.90;;;;;;5071850;28;20428;-77
2023/08/19 01:25:16;;;;;;;4.60;2.73;;;22.70;99.90;;;;;;5053994;28;20186;-76
2023/08/19 01:27:42;;;;;;;5.83;2.27;;;22.60;99.90;;;;;;5072052;28;20527;-76
2023/08/19 01:30:08;;;;;;;7.67;2.77;;;22.50;99.90;;;;;;5037070;28;20514;-76
2023/08/19 01:32:34;;;;;;;6.77;2.53;;;22.60;99.90;;;;;;5070780;28;20560;-77
2023/08/19 01:35:00;;;;;;;6.00;2.70;;;22.60;99.90;;;;;;5071635;28;20505;-76
2023/08/19 01:37:33;;;;;;;7.03;3.23;;;22.50;99.90;;;;;;5072806;28;20506;-76
2023/08/19 01:40:00;;;;;;;18.73;3.30;;;22.40;99.90;;;;;;5072661;28;21170;-76
2023/08/19 01:42:26;;;;;;;3.53;2.47;;;22.30;99.90;;;;;;5072114;28;20426;-76
2023/08/19 01:44:54;;;;;;;3.77;2.57;;;22.30;99.90;;;;;;5071976;28;20870;-76
2023/08/19 01:47:20;;;;;;;12.10;3.23;;;22.30;99.90;;;;;;5071856;28;20900;-75
2023/08/19 01:49:46;;;;;;;4.93;2.77;;;22.30;99.90;;;;;;5053324;28;20451;-75
2023/08/19 01:52:13;;;;;;;6.67;2.40;;;22.30;99.90;;;;;;5053513;28;20456;-76
2023/08/19 01:54:38;;;;;;;9.20;2.37;;;22.20;99.90;;;;;;5071347;28;20634;-75
2023/08/19 01:57:05;;;;;;;8.73;2.97;;;22.20;99.90;;;;;;5053606;28;20486;-76
2023/08/19 01:59:31;;;;;;;5.90;2.53;;;22.30;99.90;;;;;;5071828;28;20440;-76
2023/08/19 02:01:56;;;;;;;5.50;2.63;;;22.30;99.90;;;;;;5054240;28;20406;-76
2023/08/19 02:04:22;;;;;;;5.53;2.27;;;22.40;99.90;;;;;;5071642;28;20197;-76
2023/08/19 02:06:47;;;;;;;4.40;2.50;;;22.40;99.90;;;;;;5072051;28;20208;-77
2023/08/19 02:09:13;;;;;;;4.17;2.20;;;22.40;99.90;;;;;;5054661;28;20189;-75
2023/08/19 02:11:39;;;;;;;4.30;2.30;;;22.50;99.90;;;;;;5054978;28;20233;-80
2023/08/19 02:14:04;;;;;;;7.73;2.47;;;22.50;99.90;;;;;;5055210;28;20263;-76
2023/08/19 02:16:30;;;;;;;6.03;2.30;;;22.60;99.90;;;;;;5054478;28;20185;-76
2023/08/19 02:18:59;;;;;;;3.57;2.13;;;22.60;99.90;;;;;;5054350;28;20180;-77
2023/08/19 02:21:25;;;;;;;4.07;2.50;;;22.60;99.90;;;;;;5054872;28;20218;-76
2023/08/19 02:23:51;;;;;;;4.73;2.40;;;22.70;99.90;;;;;;5073657;28;20434;-77
2023/08/19 02:26:17;;;;;;;5.40;2.73;;;22.70;99.90;;;;;;5071129;28;20224;-76
2023/08/19 02:28:42;;;;;;;7.33;2.60;;;22.70;99.90;;;;;;5071177;28;20181;-76
2023/08/19 02:31:08;;;;;;;5.87;3.03;;;22.80;99.90;;;;;;5070987;28;20191;-76
2023/08/19 02:33:35;;;;;;;4.87;3.13;;;22.80;99.90;;;;;;5052683;28;20210;-77
2023/08/19 02:36:01;;;;;;;5.90;2.33;;;22.80;99.90;;;;;;5070823;28;20202;-76
2023/08/19 02:38:26;;;;;;;2.87;2.53;;;22.80;99.90;;;;;;5052680;28;20462;-76
2023/08/19 02:40:53;;;;;;;4.03;1.73;;;22.80;99.90;;;;;;5070280;28;20232;-76
2023/08/19 02:43:18;;;;;;;2.47;1.90;;;22.70;99.90;;;;;;5069905;28;20202;-75
2023/08/19 02:45:46;;;;;;;4.60;2.43;;;22.80;99.90;;;;;;5069822;28;20747;-75
2023/08/19 02:48:11;;;;;;;6.53;1.90;;;22.80;99.90;;;;;;5070060;28;20176;-76
2023/08/19 02:50:37;;;;;;;6.67;2.97;;;22.80;99.90;;;;;;5069952;28;20430;-75
2023/08/19 02:53:02;;;;;;;4.07;2.67;;;22.90;99.90;;;;;;5070902;28;20699;-75
2023/08/19 02:55:28;;;;;;;5.63;2.60;;;22.90;99.90;;;;;;5052646;28;20187;-75
2023/08/19 02:57:53;;;;;;;9.73;3.13;;;22.80;99.90;;;;;;5070844;28;20322;-76
2023/08/19 03:00:19;;;;;;;9.20;2.50;;;22.90;99.90;;;;;;5051909;28;20214;-76
2023/08/19 03:02:46;;;;;;;6.03;3.60;;;23.00;99.90;;;;;;5052056;28;20180;-75
2023/08/19 03:05:12;;;;;;;3.13;2.83;;;22.50;99.90;;;;;;5051817;28;20710;-75
2023/08/19 03:07:38;;;;;;;7.13;3.33;;;22.30;99.90;;;;;;5070240;28;20440;-75
2023/08/19 03:10:04;;;;;;;7.97;3.67;;;22.10;99.90;;;;;;5070142;28;20419;-76
2023/08/19 03:12:30;;;;;;;7.50;3.83;;;21.90;99.90;;;;;;5052009;28;20194;-75
2023/08/19 03:14:55;;;;;;;6.30;3.67;;;21.60;99.90;;;;;;5070025;28;21061;-76
2023/08/19 03:17:21;;;;;;;6.60;4.20;;;21.50;99.90;;;;;;5069991;28;20189;-76
2023/08/19 03:19:47;;;;;;;6.43;3.60;;;21.30;99.90;;;;;;5070877;28;20213;-76
2023/08/19 03:22:13;;;;;;;8.43;4.50;;;21.20;99.90;;;;;;5052852;28;20538;-78
2023/08/19 03:24:38;;;;;;;8.00;4.33;;;21.10;99.90;;;;;;5070852;28;20287;-77
2023/08/19 03:27:04;;;;;;;7.03;3.73;;;21.00;99.90;;;;;;5053052;28;20445;-77
2023/08/19 03:29:30;;;;;;;9.10;4.20;;;20.90;99.90;;;;;;5070606;28;20175;-77
2023/08/19 03:31:57;;;;;;;6.17;4.20;;;20.90;99.90;;;;;;5036016;28;20727;-76
2023/08/19 03:34:23;;;;;;;5.47;4.50;;;20.80;99.90;;;;;;5070768;28;20201;-79
2023/08/19 03:36:48;;;;;;;7.60;5.00;;;20.80;99.90;;;;;;5052530;28;20419;-79
2023/08/19 03:39:14;;;;;;;9.73;5.00;;;20.70;99.90;;;;;;5035452;28;21044;-79
2023/08/19 03:41:40;;;;;;;6.30;3.60;;;20.70;99.90;;;;;;5051422;28;20204;-80
2023/08/19 03:44:05;;;;;;;10.30;4.50;;;20.70;99.90;;;;;;5051543;28;20211;-78
2023/08/19 03:46:31;;;;;;;4.70;3.60;;;20.60;99.90;;;;;;5069699;28;20266;-77
2023/08/19 03:48:56;;;;;;;6.27;3.97;;;20.70;99.90;;;;;;5069907;28;20193;-77
2023/08/19 03:51:22;;;;;;;4.10;3.47;;;20.60;99.90;;;;;;5069336;28;20190;-78
2023/08/19 03:53:48;;;;;;;7.33;3.60;;;20.60;99.90;;;;;;5034231;28;20302;-76
2023/08/19 03:56:13;;;;;;;5.07;3.50;;;20.60;99.90;;;;;;5056215;28;20285;-76
2023/08/19 03:58:39;;;;;;;9.07;3.90;;;20.60;99.90;;;;;;5076072;28;20202;-77
2023/08/19 04:01:08;;;;;;;8.13;3.90;;;20.50;99.90;;;;;;5075881;28;20648;-77
2023/08/19 04:03:34;;;;;;;7.13;3.80;;;20.50;99.90;;;;;;5076011;28;20279;-78
2023/08/19 04:05:59;;;;;;;6.00;3.57;;;20.40;99.90;;;;;;5057662;28;20965;-78
2023/08/19 04:08:25;;;;;;;4.23;3.63;;;20.40;99.90;;;;;;5040957;28;20194;-77
2023/08/19 04:10:51;;;;;;;9.80;3.97;;;20.40;99.90;;;;;;5075618;28;20201;-76
2023/08/19 04:13:17;;;;;;;5.83;3.63;;;20.30;99.90;;;;;;5076324;28;20442;-77
2023/08/19 04:15:43;;;;;;;4.37;3.80;;;20.30;99.90;;;;;;5057651;28;20195;-76
2023/08/19 04:18:10;;;;;;;9.93;3.97;;;20.30;99.90;;;;;;5075648;28;20422;-75
2023/08/19 04:20:39;;;;;;;6.00;3.93;;;20.20;99.90;;;;;;5075356;28;20203;-76
2023/08/19 04:23:06;;;;;;;11.30;4.17;;;20.20;99.90;;;;;;5075533;28;20409;-76
2023/08/19 04:25:31;;;;;;;4.63;3.57;;;20.10;99.90;;;;;;5075378;28;20417;-77
2023/08/19 04:27:57;;;;;;;8.20;3.60;;;20.10;99.90;;;;;;5075671;28;20409;-78
2023/08/19 04:30:23;;;;;;;8.33;4.73;;;20.00;99.90;;;;;;5057900;28;20457;-78
2023/08/19 04:32:50;;;;;;;6.37;4.00;;;20.10;99.90;;;;;;5075499;28;20221;-78
2023/08/19 04:35:16;;;;;;;8.80;3.67;;;20.10;99.90;;;;;;5057623;28;20425;-77
2023/08/19 04:37:42;;;;;;;6.00;3.80;;;20.10;99.90;;;;;;5057425;28;20432;-77
2023/08/19 04:40:09;;;;;;;13.27;4.87;;;20.00;99.90;;;;;;5075462;28;20457;-76
2023/08/19 04:42:36;;;;;;;3.90;3.40;;;20.00;99.90;;;;;;5075428;28;20243;-75
2023/08/19 04:45:02;;;;;;;13.40;4.00;;;20.00;99.90;;;;;;5074938;28;20465;-75
2023/08/19 04:47:27;;;;;;;5.13;3.60;;;20.00;99.90;;;;;;5075400;28;20301;-77
2023/08/19 04:49:53;;;;;;;9.13;3.80;;;19.90;99.90;;;;;;5075502;28;20780;-78
2023/08/19 04:52:19;;;;;;;6.87;3.30;;;19.90;99.90;;;;;;5040610;28;20196;-77
2023/08/19 04:54:44;;;;;;;4.70;3.13;;;19.90;99.90;;;;;;5056707;28;20325;-77
2023/08/19 04:57:10;;;;;;;4.10;3.03;;;19.90;99.90;;;;;;5056944;28;20186;-76
2023/08/19 04:59:35;;;;;;;10.73;3.40;;;19.90;99.90;;;;;;5056873;28;20764;-79
2023/08/19 05:02:01;;;;;;;13.10;3.80;;;19.80;99.90;;;;;;5079011;28;20191;-78
2023/08/19 05:04:27;;;;;;;5.80;3.40;;;19.80;99.90;;;;;;5056873;28;20209;-82
2023/08/19 05:06:52;;;;;;;6.50;3.60;;;19.80;99.90;;;;;;5038074;28;20647;-78
2023/08/19 05:09:18;;;;;;;6.20;3.23;;;19.80;99.90;;;;;;5053925;28;20189;-78
2023/08/19 05:11:44;;;;;;;12.70;4.53;;;19.80;99.90;;;;;;5037186;28;20191;-78
2023/08/19 05:14:09;;;;;;;8.50;3.47;;;19.80;99.90;;;;;;5036874;28;20230;-76
2023/08/19 05:16:35;;;;;;;7.87;3.80;;;19.80;99.90;;;;;;5071788;28;20190;-76
2023/08/19 05:19:20;;;;;;;6.90;3.67;;;19.80;99.90;;;;;;5071741;28;20191;-77
2023/08/19 05:21:48;;;;;;;5.20;3.57;;;19.90;99.90;;;;;;5071704;28;20211;-77
2023/08/19 05:24:14;;;;;;;5.50;3.77;;;19.90;99.90;;;;;;5053562;28;20820;-76
2023/08/19 05:26:40;;;;;;;3.90;3.33;;;20.00;99.90;;;;;;5053694;28;21227;-78
2023/08/19 05:29:07;;;;;;;11.50;3.63;;;20.10;99.90;;;;;;5072501;28;20944;-78
2023/08/19 05:31:33;;;;;;;4.00;3.17;;;20.10;99.90;;;;;;5055009;28;20520;-77
2023/08/19 05:33:59;;;;;;;4.57;3.53;;;20.20;99.90;;;;;;5054872;28;20453;-77
2023/08/19 05:36:25;;;;;;;10.97;4.07;;;20.20;99.90;;;;;;5072805;28;20429;-76
2023/08/19 05:38:50;;;;;;;11.13;4.00;;;20.20;99.90;;;;;;5053470;28;20199;-79
2023/08/19 05:41:16;;;;;;;12.93;4.20;;;20.30;99.90;;;;;;5053723;28;20223;-77
2023/08/19 05:43:41;;;;;;;6.17;3.93;;;20.40;99.90;;;;;;5072087;28;20684;-77
2023/08/19 05:46:07;;;;;;;11.27;3.53;;;20.40;99.90;;;;;;5054439;28;20262;-76
2023/08/19 05:48:33;;;;;;;8.27;3.60;;;20.50;99.90;;;;;;5054418;28;20659;-77
2023/08/19 05:51:00;;;;;;;5.37;3.10;;;20.50;99.90;;;;;;5071749;28;20433;-77
2023/08/19 05:53:26;;;;;;;10.27;3.73;;;20.80;99.90;;;;;;5071562;28;20813;-76
2023/08/19 05:55:51;;;;;;;6.23;3.93;;;20.90;99.90;;;;;;5053779;28;20427;-77
2023/08/19 05:58:17;;;;;;;5.53;3.30;;;21.00;99.90;;;;;;5053921;28;20270;-77
2023/08/19 06:00:43;;;;;;;12.27;3.90;;;21.10;99.90;;;;;;5053675;28;20219;-76
2023/08/19 06:03:09;;;;;;;5.03;3.67;;;21.20;99.90;;;;;;5071440;28;20591;-76
2023/08/19 06:05:38;;;;;;;7.00;3.60;;;21.30;99.90;;;;;;5053079;28;20413;-76
2023/08/19 06:08:04;;;;;;;5.30;3.33;;;21.40;99.90;;;;;;5070935;28;20426;-75
2023/08/19 06:10:30;;;;;;;8.33;3.40;;;21.40;99.90;;;;;;5052897;28;20430;-76
2023/08/19 06:12:56;;;;;;;12.17;3.77;;;21.60;99.90;;;;;;5070493;28;20508;-76
2023/08/19 06:15:22;;;;;;;7.63;3.40;;;21.70;99.90;;;;;;5070359;28;20430;-75
2023/08/19 06:17:47;;;;;;;9.03;3.67;;;21.90;99.90;;;;;;5070146;28;20428;-76
2023/08/19 06:20:13;;;;;;;7.10;3.53;;;22.10;99.90;;;;;;5052384;28;20218;-76
2023/08/19 06:22:39;;;;;;;9.57;3.70;;;22.30;99.90;;;;;;5070313;28;20263;-75
2023/08/19 06:25:05;;;;;;;3.80;3.40;;;22.40;99.90;;;;;;5070349;28;20205;-75
2023/08/19 06:27:30;;;;;;;8.00;3.60;;;22.50;99.90;;;;;;5070566;28;20548;-75
2023/08/19 06:29:56;;;;;;;6.97;3.60;;;22.50;99.90;;;;;;5052803;28;20422;-76
2023/08/19 06:32:22;;;;;;;8.37;3.80;;;22.60;99.90;;;;;;5053003;28;20656;-76
2023/08/19 06:34:48;;;;;;;7.93;3.90;;;22.70;99.90;;;;;;5052923;28;20213;-75
2023/08/19 06:37:19;;;;;;;13.23;3.40;;;22.90;99.90;;;;;;5052831;28;20484;-75
2023/08/19 06:39:52;;;;;;;14.07;4.00;;;23.00;99.90;;;;;;5070977;28;20409;-75
2023/08/19 06:42:19;;;;;;;7.00;3.60;;;23.10;99.90;;;;;;5070867;28;20430;-77
2023/08/19 06:44:48;;;;;;;12.23;3.83;;;23.20;99.90;;;;;;5070681;28;20434;-76
2023/08/19 06:47:21;;;;;;;9.30;5.63;;;23.30;99.90;;;;;;5070403;28;20813;-75
2023/08/19 06:49:47;;;;;;;6.37;3.70;;;23.30;99.90;;;;;;5052056;28;20438;-75
2023/08/19 06:52:13;;;;;;;8.70;3.30;;;23.40;99.90;;;;;;5071258;28;20850;-76
2023/08/19 06:54:39;;;;;;;5.53;3.60;;;23.50;99.90;;;;;;5054348;28;20479;-74
2023/08/19 06:57:12;;;;;;;8.90;3.43;;;23.50;99.90;;;;;;5071892;28;20265;-75
2023/08/19 06:59:39;;;;;;;6.03;3.33;;;23.60;99.90;;;;;;5053674;28;20918;-74
2023/08/19 07:02:07;;;;;;;4.23;3.37;;;23.60;99.90;;;;;;5071329;28;20423;-75
2023/08/19 07:04:33;;;;;;;8.03;4.13;;;23.50;99.90;;;;;;5070867;28;20454;-76
2023/08/19 07:07:04;;;;;;;11.23;3.60;;;23.60;99.90;;;;;;5069793;28;20922;-75
2023/08/19 07:09:29;;;;;;;10.70;3.90;;;23.70;99.90;;;;;;5071329;28;20734;-76
2023/08/19 07:11:57;;;;;;;20.47;4.77;;;23.70;99.90;;;;;;5076158;28;20420;-76
2023/08/19 07:14:24;;;;;;;7.10;3.00;;;23.70;99.90;;;;;;5072068;28;20518;-75
2023/08/19 07:16:51;;;;;;;8.57;3.70;;;23.70;99.90;;;;;;5069220;28;20451;-77
2023/08/19 07:19:40;;;;;;;9.70;3.43;;;23.70;99.90;;;;;;5069455;28;20432;-76
2023/08/19 07:22:07;;;;;;;7.60;3.40;;;23.80;99.90;;;;;;5068635;28;20523;-75
2023/08/19 07:24:33;;;;;;;11.60;4.20;;;23.90;99.90;;;;;;5068566;28;20441;-75
2023/08/19 07:27:03;;;;;;;6.93;3.67;;;23.90;99.90;;;;;;5068289;28;20439;-75
2023/08/19 07:29:30;;;;;;;30.33;11.33;;;24.00;99.90;;;;;;5067733;28;20181;-76
2023/08/19 07:31:57;;;;;;;16.23;5.90;;;24.00;99.90;;;;;;5068100;28;20917;-76
2023/08/19 07:34:23;;;;;;;11.97;4.80;;;24.00;99.90;;;;;;5068227;28;21014;-77
2023/08/19 07:36:49;;;;;;;8.33;3.70;;;24.00;99.90;;;;;;5050298;28;20415;-76
2023/08/19 07:39:15;;;;;;;11.10;5.00;;;24.10;99.90;;;;;;5068324;28;20210;-77
2023/08/19 07:41:40;;;;;;;6.77;3.80;;;24.20;99.90;;;;;;5068180;28;20493;-77
2023/08/19 07:44:06;;;;;;;8.00;4.03;;;24.30;99.90;;;;;;5068247;28;20275;-76
2023/08/19 07:46:32;;;;;;;5.93;3.27;;;24.40;99.90;;;;;;5068507;28;20213;-76
2023/08/19 07:48:58;;;;;;;8.53;3.70;;;24.50;99.90;;;;;;5068499;28;20733;-76
2023/08/19 07:51:24;;;;;;;9.43;3.07;;;24.70;99.90;;;;;;5068825;28;20913;-76
2023/08/19 07:53:50;;;;;;;6.20;3.33;;;24.80;99.90;;;;;;5034124;28;20467;-75
2023/08/19 07:56:17;;;;;;;5.83;3.27;;;24.90;99.90;;;;;;5069020;28;20497;-76
2023/08/19 07:58:42;;;;;;;5.90;3.60;;;25.00;99.90;;;;;;5069464;28;20232;-76
2023/08/19 08:01:10;;;;;;;3.97;3.07;;;25.10;99.90;;;;;;5069010;28;20456;-75
2023/08/19 08:03:38;;;;;;;5.80;3.23;;;25.20;99.90;;;;;;5069176;28;20219;-77
2023/08/19 08:06:03;;;;;;;8.70;3.67;;;25.30;99.90;;;;;;5070376;28;20470;-77
2023/08/19 08:08:29;;;;;;;9.53;3.10;;;25.40;99.90;;;;;;5069345;28;20409;-76
2023/08/19 08:10:55;;;;;;;9.60;3.30;;;25.50;99.90;;;;;;5050227;28;20201;-77
2023/08/19 08:13:21;;;;;;;11.70;3.27;;;25.60;99.90;;;;;;5050203;28;20212;-76
2023/08/19 08:15:47;;;;;;;5.63;3.37;;;25.70;99.90;;;;;;5067974;28;20229;-75
2023/08/19 08:18:12;;;;;;;8.43;3.63;;;25.90;99.90;;;;;;5068164;28;20441;-75
2023/08/19 08:20:38;;;;;;;6.30;4.13;;;26.00;99.90;;;;;;5050028;28;21004;-75
2023/08/19 08:23:04;;;;;;;9.10;4.10;;;26.10;99.90;;;;;;5067388;28;20271;-77
2023/08/19 08:25:29;;;;;;;5.30;4.00;;;26.20;99.90;;;;;;5067528;28;20189;-76
2023/08/19 08:27:55;;;;;;;7.97;3.27;;;26.40;99.90;;;;;;5067692;28;20199;-77
2023/08/19 08:30:21;;;;;;;9.40;3.77;;;26.50;99.90;;;;;;5067920;28;20424;-76
2023/08/19 08:32:47;;;;;;;6.23;3.70;;;26.60;99.90;;;;;;5049610;28;20199;-75
2023/08/19 08:35:13;;;;;;;9.20;4.13;;;26.70;99.90;;;;;;5067149;28;20203;-74
2023/08/19 08:37:38;;;;;;;10.10;4.63;;;26.90;99.90;;;;;;5067090;28;20797;-76
2023/08/19 08:40:05;;;;;;;12.63;4.40;;;27.00;99.90;;;;;;5032279;28;20217;-78
2023/08/19 08:42:31;;;;;;;8.23;4.60;;;27.10;99.90;;;;;;5070103;28;20183;-76
2023/08/19 08:44:58;;;;;;;11.30;5.10;;;27.30;99.90;;;;;;5070565;28;20487;-75
2023/08/19 08:47:26;;;;;;;8.37;4.03;;;27.40;99.90;;;;;;5052594;28;20464;-75
2023/08/19 08:49:53;;;;;;;12.63;4.70;;;27.50;99.90;;;;;;5070366;28;20973;-77
2023/08/19 08:52:20;;;;;;;9.77;4.43;;;27.70;99.90;;;;;;5070778;28;20424;-76
2023/08/19 08:54:53;;;;;;;47.93;12.87;;;27.90;99.90;;;;;;5070497;28;20545;-76
2023/08/19 08:57:19;;;;;;;12.67;5.70;;;28.00;99.90;;;;;;5070302;28;20413;-77
2023/08/19 08:59:45;;;;;;;13.90;4.40;;;28.10;99.90;;;;;;5052014;28;20535;-75
2023/08/19 09:02:12;;;;;;;13.47;4.50;;;28.20;99.90;;;;;;5070157;28;20536;-76
2023/08/19 09:04:44;;;;;;;11.17;3.50;;;28.40;99.90;;;;;;5070292;28;20663;-76
2023/08/19 09:07:20;;;;;;;12.97;4.13;;;28.60;99.90;;;;;;5070309;28;20413;-77
2023/08/19 09:09:48;;;;;;;4.40;3.47;;;28.80;99.90;;;;;;5051825;28;20512;-77
2023/08/19 09:12:14;;;;;;;10.63;3.90;;;29.10;99.90;;;;;;5070091;28;20415;-76
2023/08/19 09:14:44;;;;;;;11.63;3.77;;;29.30;99.90;;;;;;5070008;28;20969;-76
2023/08/19 09:17:14;;;;;;;6.37;3.60;;;29.50;99.90;;;;;;5070099;28;20427;-76
2023/08/19 09:19:40;;;;;;;4.00;3.50;;;29.50;99.90;;;;;;5070200;28;20413;-78
2023/08/19 09:22:24;;;;;;;7.60;3.40;;;29.60;99.90;;;;;;5069908;28;20491;-77
2023/08/19 09:24:53;;;;;;;8.50;4.00;;;29.60;99.90;;;;;;5070029;28;20193;-75
2023/08/19 09:27:32;;;;;;;12.53;4.33;;;29.70;99.90;;;;;;5069979;28;20420;-77
2023/08/19 09:29:58;;;;;;;11.63;4.23;;;29.80;99.90;;;;;;5070355;28;20863;-75
2023/08/19 09:32:32;;;;;;;9.00;3.93;;;29.90;99.90;;;;;;5070050;28;20428;-77
2023/08/19 09:35:14;;;;;;;14.80;4.40;;;30.00;99.90;;;;;;5069707;28;20914;-77
2023/08/19 09:37:41;;;;;;;15.30;3.73;;;30.10;99.90;;;;;;5069653;28;20992;-75
2023/08/19 09:40:11;;;;;;;4.17;3.27;;;30.20;99.90;;;;;;5069507;28;20464;-76
2023/08/19 09:42:37;;;;;;;7.77;3.87;;;30.40;99.90;;;;;;5069735;28;20507;-76
2023/08/19 09:45:05;;;;;;;9.87;3.60;;;30.50;99.90;;;;;;5069917;28;20429;-76
2023/08/19 09:47:51;;;;;;;6.03;3.80;;;30.60;99.90;;;;;;5069179;28;20432;-77
2023/08/19 09:50:19;;;;;;;4.47;4.07;;;30.70;99.90;;;;;;5069332;28;20428;-75
2023/08/19 09:52:59;;;;;;;12.90;3.60;;;30.80;99.90;;;;;;5068693;28;20421;-77
2023/08/19 09:55:27;;;;;;;6.10;3.43;;;31.00;99.90;;;;;;5051507;28;20429;-76
2023/08/19 09:57:53;;;;;;;9.70;3.63;;;31.30;99.90;;;;;;5069633;28;20456;-77
2023/08/19 10:00:18;;;;;;;7.13;3.70;;;31.40;99.90;;;;;;5068961;28;20465;-76
2023/08/19 10:02:44;;;;;;;5.27;3.63;;;31.60;98.70;;;;;;5068727;28;20417;-76
2023/08/19 10:05:10;;;;;;;7.60;4.20;;;31.70;99.90;;;;;;5069072;28;20195;-77
2023/08/19 10:07:39;;;;;;;8.40;3.87;;;31.80;99.30;;;;;;5068966;28;20178;-77
2023/08/19 10:10:07;;;;;;;9.50;4.77;;;31.80;97.30;;;;;;5050979;28;20179;-75
2023/08/19 10:12:36;;;;;;;10.13;3.33;;;31.90;97.70;;;;;;5068706;28;21165;-76
2023/08/19 10:15:03;;;;;;;11.27;3.90;;;32.00;96.30;;;;;;5068701;28;20536;-76
2023/08/19 10:17:32;;;;;;;9.33;3.00;;;32.00;95.00;;;;;;5068737;28;20502;-75
2023/08/19 10:20:05;;;;;;;6.83;2.67;;;32.10;92.70;;;;;;5068786;28;20518;-76
2023/08/19 10:22:34;;;;;;;6.50;3.27;;;32.20;91.50;;;;;;5068699;28;20472;-77
2023/08/19 10:25:01;;;;;;;4.60;2.90;;;32.40;90.10;;;;;;5068335;28;20429;-77
2023/08/19 10:27:27;;;;;;;9.43;3.57;;;32.40;91.00;;;;;;5068586;28;20487;-76
2023/08/19 10:29:57;;;;;;;7.13;2.93;;;32.50;90.80;;;;;;5068412;28;21022;-78
2023/08/19 10:32:30;;;;;;;8.03;3.60;;;32.50;89.40;;;;;;5050068;28;20579;-76
2023/08/19 10:35:09;;;;;;;5.20;3.40;;;32.80;90.70;;;;;;5068537;28;20443;-75
2023/08/19 10:37:48;;;;;;;3.50;2.93;;;32.80;90.40;;;;;;5068234;28;20417;-76
2023/08/19 10:40:23;;;;;;;5.67;3.23;;;32.90;90.20;;;;;;5068256;28;20468;-76
2023/08/19 10:42:59;;;;;;;8.03;3.20;;;32.90;90.40;;;;;;5068564;28;20449;-77
2023/08/19 10:45:32;;;;;;;13.20;3.77;;;33.00;91.20;;;;;;5068508;28;20827;-76
2023/08/19 10:47:58;;;;;;;6.40;3.87;;;33.10;90.60;;;;;;5050335;28;20506;-76
2023/08/19 10:50:27;;;;;;;6.97;3.70;;;33.30;90.60;;;;;;5050065;28;20871;-77
2023/08/19 10:53:19;;;;;;;10.73;3.20;;;33.30;89.50;;;;;;5068296;28;20191;-77
2023/08/19 10:55:55;;;;;;;4.77;3.10;;;33.40;86.30;;;;;;5068482;28;20530;-76
2023/08/19 10:58:22;;;;;;;5.47;3.43;;;33.40;87.00;;;;;;5068415;28;20421;-76
2023/08/19 11:00:48;;;;;;;5.97;3.13;;;33.40;87.60;;;;;;5049873;28;20925;-76
2023/08/19 11:03:15;;;;;;;8.30;3.40;;;33.50;87.90;;;;;;5067962;28;20532;-76
2023/08/19 11:05:48;;;;;;;9.57;4.10;;;33.60;87.50;;;;;;5067473;28;20913;-76
2023/08/19 11:08:14;;;;;;;5.27;2.80;;;33.60;88.30;;;;;;5068665;28;20413;-78
2023/08/19 11:10:40;;;;;;;3.57;2.80;;;33.60;85.00;;;;;;5068192;28;20425;-77
2023/08/19 11:13:06;;;;;;;5.03;2.90;;;33.70;84.70;;;;;;5067584;28;20482;-77
2023/08/19 11:15:31;;;;;;;6.27;2.87;;;33.80;78.90;;;;;;5049703;28;20187;-76
2023/08/19 11:17:58;;;;;;;3.67;2.30;;;33.90;76.10;;;;;;5049788;28;20190;-78
2023/08/19 11:20:30;;;;;;;12.57;2.77;;;34.00;76.20;;;;;;5068010;28;20210;-77
2023/08/19 11:22:56;;;;;;;5.77;2.50;;;34.10;75.80;;;;;;5068265;28;20510;-78
2023/08/19 11:25:32;;;;;;;9.10;2.90;;;34.00;72.90;;;;;;5068918;28;20554;-78
2023/08/19 11:27:58;;;;;;;4.10;3.10;;;34.10;72.50;;;;;;5068806;28;20178;-77
2023/08/19 11:30:24;;;;;;;10.33;3.10;;;34.20;76.40;;;;;;5068773;28;20429;-77
2023/08/19 11:32:49;;;;;;;5.80;3.27;;;34.20;76.10;;;;;;5049748;28;20187;-77
2023/08/19 11:35:15;;;;;;;3.70;2.60;;;34.20;75.30;;;;;;5067904;28;20683;-77
2023/08/19 11:37:41;;;;;;;3.93;2.67;;;34.20;77.20;;;;;;5067814;28;20189;-78
2023/08/19 11:40:08;;;;;;;4.20;3.20;;;34.30;76.30;;;;;;5067548;28;20671;-78
2023/08/19 11:42:33;;;;;;;4.53;2.80;;;34.30;70.80;;;;;;5068157;28;20187;-78
2023/08/19 11:44:59;;;;;;;4.40;2.80;;;34.40;68.00;;;;;;5067686;28;20429;-76
2023/08/19 11:47:25;;;;;;;3.77;2.70;;;34.40;69.70;;;;;;5067577;28;20179;-77
2023/08/19 11:49:51;;;;;;;4.83;2.70;;;34.50;69.40;;;;;;5049576;28;20210;-77
2023/08/19 11:52:26;;;;;;;6.10;2.70;;;34.50;72.60;;;;;;5067311;28;20496;-77
2023/08/19 11:55:03;;;;;;;4.97;2.67;;;34.50;70.70;;;;;;5067278;28;20484;-78
2023/08/19 11:57:37;;;;;;;3.90;2.33;;;34.50;79.70;;;;;;5067714;28;20417;-76
2023/08/19 12:00:06;;;;;;;5.37;2.50;;;34.70;69.10;;;;;;5049164;28;20464;-77
2023/08/19 12:02:32;;;;;;;7.70;2.77;;;34.80;70.20;;;;;;5049349;28;20851;-78
2023/08/19 12:04:58;;;;;;;4.00;2.77;;;34.80;64.50;;;;;;5067270;28;20429;-77
2023/08/19 12:07:29;;;;;;;7.83;3.17;;;34.80;64.70;;;;;;5067509;28;20187;-77
2023/08/19 12:09:58;;;;;;;6.37;3.10;;;34.90;67.00;;;;;;5067737;28;20252;-77
2023/08/19 12:12:24;;;;;;;12.07;3.30;;;34.90;64.30;;;;;;5049539;28;20420;-77
2023/08/19 12:14:51;;;;;;;4.50;2.80;;;34.90;65.80;;;;;;5049395;28;20434;-76
2023/08/19 12:17:17;;;;;;;4.63;2.63;;;35.00;68.10;;;;;;5052517;28;20447;-75
2023/08/19 12:19:45;;;;;;;4.23;2.67;;;35.00;67.00;;;;;;5054154;28;20856;-75
2023/08/19 12:22:11;;;;;;;8.67;2.70;;;35.00;65.90;;;;;;5073293;28;20504;-76
2023/08/19 12:24:36;;;;;;;5.93;2.40;;;35.10;64.40;;;;;;5056116;28;20890;-75
2023/08/19 12:27:02;;;;;;;5.17;2.53;;;35.10;64.50;;;;;;5072592;28;20475;-76
2023/08/19 12:29:28;;;;;;;6.10;2.83;;;35.10;63.60;;;;;;5054144;28;20191;-79
2023/08/19 12:31:54;;;;;;;3.27;2.77;;;35.10;62.40;;;;;;5072126;28;20421;-75
2023/08/19 12:34:20;;;;;;;2.73;2.37;;;35.10;64.90;;;;;;5071679;28;20953;-78
2023/08/19 12:36:45;;;;;;;4.60;3.13;;;35.00;65.70;;;;;;5071590;28;20182;-78
2023/08/19 12:39:11;;;;;;;4.40;2.47;;;35.10;62.60;;;;;;5071303;28;20183;-76
2023/08/19 12:41:37;;;;;;;4.47;2.50;;;35.10;64.80;;;;;;5036846;28;20253;-78
2023/08/19 12:44:03;;;;;;;3.87;2.60;;;35.10;66.70;;;;;;5071519;28;20701;-78
2023/08/19 12:46:39;;;;;;;6.83;3.00;;;35.00;66.80;;;;;;5053107;28;20193;-78